sensor_id;sensor_type;location;lat;lon;timestamp;P1;durP1;ratioP1;P2;durP2;ratioP2
17991;SDS011;9121;50.926;5.340;2023-06-22T00:01:17;18.77;;;6.20;;
17991;SDS011;9121;50.926;5.340;2023-06-22T00:03:44;16.05;;;5.55;;
17991;SDS011;9121;50.926;5.340;2023-06-22T00:06:10;19.55;;;5.60;;
17991;SDS011;9121;50.926;5.340;2023-06-22T00:08:37;26.27;;;6.50;;
17991;SDS011;9121;50.926;5.340;2023-06-22T00:11:06;21.80;;;6.10;;
17991;SDS011;9121;50.926;5.340;2023-06-22T00:13:33;23.20;;;5.53;;
17991;SDS011;9121;50.926;5.340;2023-06-22T00:16:00;23.25;;;6.13;;
17991;SDS011;9121;50.926;5.340;2023-06-22T00:18:27;19.67;;;5.70;;
17991;SDS011;9121;50.926;5.340;2023-06-22T00:21:08;16.27;;;5.68;;
17991;SDS011;9121;50.926;5.340;2023-06-22T00:23:47;19.77;;;6.45;;
17991;SDS011;9121;50.926;5.340;2023-06-22T00:26:16;16.10;;;5.30;;
17991;SDS011;9121;50.926;5.340;2023-06-22T00:28:43;18.13;;;5.35;;
17991;SDS011;9121;50.926;5.340;2023-06-22T00:31:10;21.02;;;5.97;;
17991;SDS011;9121;50.926;5.340;2023-06-22T00:33:37;19.58;;;5.80;;
17991;SDS011;9121;50.926;5.340;2023-06-22T00:36:04;24.45;;;6.43;;
17991;SDS011;9121;50.926;5.340;2023-06-22T00:38:32;20.13;;;6.18;;
17991;SDS011;9121;50.926;5.340;2023-06-22T00:40:59;22.83;;;6.85;;
17991;SDS011;9121;50.926;5.340;2023-06-22T00:43:28;25.85;;;6.13;;
17991;SDS011;9121;50.926;5.340;2023-06-22T00:45:55;21.58;;;6.10;;
17991;SDS011;9121;50.926;5.340;2023-06-22T00:48:22;27.52;;;6.80;;
17991;SDS011;9121;50.926;5.340;2023-06-22T00:50:49;27.40;;;8.05;;
17991;SDS011;9121;50.926;5.340;2023-06-22T00:53:18;38.22;;;8.18;;
17991;SDS011;9121;50.926;5.340;2023-06-22T00:55:46;35.28;;;9.35;;
17991;SDS011;9121;50.926;5.340;2023-06-22T00:58:16;38.38;;;9.88;;
17991;SDS011;9121;50.926;5.340;2023-06-22T01:00:48;43.47;;;9.60;;
17991;SDS011;9121;50.926;5.340;2023-06-22T01:03:15;49.83;;;10.85;;
17991;SDS011;9121;50.926;5.340;2023-06-22T01:05:42;45.53;;;11.02;;
17991;SDS011;9121;50.926;5.340;2023-06-22T01:08:14;48.40;;;11.13;;
17991;SDS011;9121;50.926;5.340;2023-06-22T01:10:58;47.47;;;11.02;;
17991;SDS011;9121;50.926;5.340;2023-06-22T01:13:35;60.92;;;13.05;;
17991;SDS011;9121;50.926;5.340;2023-06-22T01:16:09;56.67;;;12.43;;
17991;SDS011;9121;50.926;5.340;2023-06-22T01:18:40;63.97;;;12.95;;
17991;SDS011;9121;50.926;5.340;2023-06-22T01:21:09;59.65;;;13.50;;
17991;SDS011;9121;50.926;5.340;2023-06-22T01:23:45;52.90;;;13.02;;
17991;SDS011;9121;50.926;5.340;2023-06-22T01:26:22;54.55;;;13.13;;
17991;SDS011;9121;50.926;5.340;2023-06-22T01:28:57;54.78;;;12.85;;
17991;SDS011;9121;50.926;5.340;2023-06-22T01:31:26;51.75;;;12.23;;
17991;SDS011;9121;50.926;5.340;2023-06-22T01:33:56;54.97;;;12.88;;
17991;SDS011;9121;50.926;5.340;2023-06-22T01:36:26;54.75;;;12.82;;
17991;SDS011;9121;50.926;5.340;2023-06-22T01:38:54;56.67;;;12.88;;
17991;SDS011;9121;50.926;5.340;2023-06-22T01:41:24;54.33;;;11.65;;
17991;SDS011;9121;50.926;5.340;2023-06-22T01:43:54;49.92;;;12.00;;
17991;SDS011;9121;50.926;5.340;2023-06-22T01:46:23;50.28;;;12.98;;
17991;SDS011;9121;50.926;5.340;2023-06-22T01:48:50;48.55;;;12.13;;
17991;SDS011;9121;50.926;5.340;2023-06-22T01:51:18;48.70;;;11.43;;
17991;SDS011;9121;50.926;5.340;2023-06-22T01:53:46;40.25;;;10.20;;
17991;SDS011;9121;50.926;5.340;2023-06-22T01:56:13;40.25;;;10.63;;
17991;SDS011;9121;50.926;5.340;2023-06-22T01:58:45;45.45;;;11.40;;
17991;SDS011;9121;50.926;5.340;2023-06-22T02:01:17;45.50;;;11.57;;
17991;SDS011;9121;50.926;5.340;2023-06-22T02:03:52;45.55;;;10.60;;
17991;SDS011;9121;50.926;5.340;2023-06-22T02:06:29;44.83;;;10.93;;
17991;SDS011;9121;50.926;5.340;2023-06-22T02:09:02;51.35;;;12.13;;
17991;SDS011;9121;50.926;5.340;2023-06-22T02:11:35;49.03;;;11.50;;
17991;SDS011;9121;50.926;5.340;2023-06-22T02:14:04;43.13;;;11.80;;
17991;SDS011;9121;50.926;5.340;2023-06-22T02:16:34;48.58;;;11.88;;
17991;SDS011;9121;50.926;5.340;2023-06-22T02:19:02;35.22;;;11.00;;
17991;SDS011;9121;50.926;5.340;2023-06-22T02:21:31;32.03;;;10.48;;
17991;SDS011;9121;50.926;5.340;2023-06-22T02:23:58;38.47;;;9.88;;
17991;SDS011;9121;50.926;5.340;2023-06-22T02:26:25;33.55;;;10.55;;
17991;SDS011;9121;50.926;5.340;2023-06-22T02:28:53;41.90;;;11.00;;
17991;SDS011;9121;50.926;5.340;2023-06-22T02:31:20;33.03;;;10.40;;
17991;SDS011;9121;50.926;5.340;2023-06-22T02:33:49;37.13;;;10.35;;
17991;SDS011;9121;50.926;5.340;2023-06-22T02:36:15;34.95;;;10.60;;
17991;SDS011;9121;50.926;5.340;2023-06-22T02:38:47;30.17;;;10.70;;
17991;SDS011;9121;50.926;5.340;2023-06-22T02:41:14;31.13;;;11.93;;
17991;SDS011;9121;50.926;5.340;2023-06-22T02:43:43;25.98;;;11.15;;
17991;SDS011;9121;50.926;5.340;2023-06-22T02:46:11;24.25;;;10.85;;
17991;SDS011;9121;50.926;5.340;2023-06-22T02:48:38;32.15;;;12.98;;
17991;SDS011;9121;50.926;5.340;2023-06-22T02:51:07;25.55;;;12.40;;
17991;SDS011;9121;50.926;5.340;2023-06-22T02:53:34;23.40;;;11.93;;
17991;SDS011;9121;50.926;5.340;2023-06-22T02:56:01;27.08;;;12.73;;
17991;SDS011;9121;50.926;5.340;2023-06-22T02:58:30;25.83;;;11.77;;
17991;SDS011;9121;50.926;5.340;2023-06-22T03:00:58;23.33;;;12.65;;
17991;SDS011;9121;50.926;5.340;2023-06-22T03:03:29;27.05;;;13.55;;
17991;SDS011;9121;50.926;5.340;2023-06-22T03:05:56;23.17;;;13.23;;
17991;SDS011;9121;50.926;5.340;2023-06-22T03:08:27;23.10;;;13.70;;
17991;SDS011;9121;50.926;5.340;2023-06-22T03:10:55;24.60;;;13.88;;
17991;SDS011;9121;50.926;5.340;2023-06-22T03:13:22;29.85;;;14.18;;
17991;SDS011;9121;50.926;5.340;2023-06-22T03:15:49;29.10;;;14.63;;
17991;SDS011;9121;50.926;5.340;2023-06-22T03:18:17;25.40;;;14.57;;
17991;SDS011;9121;50.926;5.340;2023-06-22T03:20:44;30.85;;;13.82;;
17991;SDS011;9121;50.926;5.340;2023-06-22T03:23:11;26.70;;;14.77;;
17991;SDS011;9121;50.926;5.340;2023-06-22T03:25:40;27.35;;;15.07;;
17991;SDS011;9121;50.926;5.340;2023-06-22T03:28:09;23.60;;;14.68;;
17991;SDS011;9121;50.926;5.340;2023-06-22T03:30:36;24.13;;;14.73;;
17991;SDS011;9121;50.926;5.340;2023-06-22T03:33:03;24.58;;;15.63;;
17991;SDS011;9121;50.926;5.340;2023-06-22T03:35:30;29.42;;;15.30;;
17991;SDS011;9121;50.926;5.340;2023-06-22T03:37:58;23.02;;;15.93;;
17991;SDS011;9121;50.926;5.340;2023-06-22T03:40:25;23.17;;;15.32;;
17991;SDS011;9121;50.926;5.340;2023-06-22T03:42:53;25.02;;;15.27;;
17991;SDS011;9121;50.926;5.340;2023-06-22T03:45:20;26.52;;;15.48;;
17991;SDS011;9121;50.926;5.340;2023-06-22T03:47:47;33.78;;;16.73;;
17991;SDS011;9121;50.926;5.340;2023-06-22T03:50:14;26.95;;;17.92;;
17991;SDS011;9121;50.926;5.340;2023-06-22T03:52:41;25.25;;;16.30;;
17991;SDS011;9121;50.926;5.340;2023-06-22T03:55:08;27.33;;;16.83;;
17991;SDS011;9121;50.926;5.340;2023-06-22T03:57:35;24.15;;;16.00;;
17991;SDS011;9121;50.926;5.340;2023-06-22T04:00:04;23.80;;;16.10;;
17991;SDS011;9121;50.926;5.340;2023-06-22T04:02:33;27.42;;;16.42;;
17991;SDS011;9121;50.926;5.340;2023-06-22T04:05:00;21.98;;;14.98;;
17991;SDS011;9121;50.926;5.340;2023-06-22T04:07:27;25.95;;;15.32;;
17991;SDS011;9121;50.926;5.340;2023-06-22T04:09:54;19.15;;;13.85;;
17991;SDS011;9121;50.926;5.340;2023-06-22T04:12:21;23.98;;;13.82;;
17991;SDS011;9121;50.926;5.340;2023-06-22T04:14:48;22.13;;;13.88;;
17991;SDS011;9121;50.926;5.340;2023-06-22T04:17:16;23.05;;;14.27;;
17991;SDS011;9121;50.926;5.340;2023-06-22T04:19:44;21.17;;;14.18;;
17991;SDS011;9121;50.926;5.340;2023-06-22T04:22:11;34.05;;;14.70;;
17991;SDS011;9121;50.926;5.340;2023-06-22T04:24:38;26.90;;;13.88;;
17991;SDS011;9121;50.926;5.340;2023-06-22T04:27:05;24.00;;;14.80;;
17991;SDS011;9121;50.926;5.340;2023-06-22T04:29:32;26.75;;;16.38;;
17991;SDS011;9121;50.926;5.340;2023-06-22T04:31:59;28.35;;;16.63;;
17991;SDS011;9121;50.926;5.340;2023-06-22T04:34:29;25.75;;;15.02;;
17991;SDS011;9121;50.926;5.340;2023-06-22T04:36:56;25.45;;;16.20;;
17991;SDS011;9121;50.926;5.340;2023-06-22T04:39:24;27.17;;;16.33;;
17991;SDS011;9121;50.926;5.340;2023-06-22T04:41:52;30.92;;;19.95;;
17991;SDS011;9121;50.926;5.340;2023-06-22T04:44:20;52.17;;;23.23;;
17991;SDS011;9121;50.926;5.340;2023-06-22T04:46:50;34.47;;;20.27;;
17991;SDS011;9121;50.926;5.340;2023-06-22T04:49:19;33.70;;;20.70;;
17991;SDS011;9121;50.926;5.340;2023-06-22T04:51:48;32.40;;;21.92;;
17991;SDS011;9121;50.926;5.340;2023-06-22T04:54:16;39.40;;;24.95;;
17991;SDS011;9121;50.926;5.340;2023-06-22T04:56:43;35.88;;;23.90;;
17991;SDS011;9121;50.926;5.340;2023-06-22T04:59:11;33.75;;;23.48;;
17991;SDS011;9121;50.926;5.340;2023-06-22T05:01:39;40.38;;;22.48;;
17991;SDS011;9121;50.926;5.340;2023-06-22T05:04:06;36.60;;;22.52;;
17991;SDS011;9121;50.926;5.340;2023-06-22T05:06:34;31.40;;;20.83;;
17991;SDS011;9121;50.926;5.340;2023-06-22T05:09:02;29.92;;;19.08;;
17991;SDS011;9121;50.926;5.340;2023-06-22T05:11:30;31.25;;;20.88;;
17991;SDS011;9121;50.926;5.340;2023-06-22T05:13:57;33.45;;;21.52;;
17991;SDS011;9121;50.926;5.340;2023-06-22T05:16:24;28.40;;;19.70;;
17991;SDS011;9121;50.926;5.340;2023-06-22T05:18:52;28.58;;;19.05;;
17991;SDS011;9121;50.926;5.340;2023-06-22T05:21:23;28.70;;;19.63;;
17991;SDS011;9121;50.926;5.340;2023-06-22T05:23:52;29.63;;;20.75;;
17991;SDS011;9121;50.926;5.340;2023-06-22T05:26:21;33.83;;;21.48;;
17991;SDS011;9121;50.926;5.340;2023-06-22T05:28:48;34.35;;;21.35;;
17991;SDS011;9121;50.926;5.340;2023-06-22T05:31:15;65.95;;;41.88;;
17991;SDS011;9121;50.926;5.340;2023-06-22T05:33:45;31.42;;;22.05;;
17991;SDS011;9121;50.926;5.340;2023-06-22T05:36:12;35.22;;;21.70;;
17991;SDS011;9121;50.926;5.340;2023-06-22T05:38:40;35.97;;;21.50;;
17991;SDS011;9121;50.926;5.340;2023-06-22T05:41:07;32.53;;;21.60;;
17991;SDS011;9121;50.926;5.340;2023-06-22T05:43:36;37.35;;;23.13;;
17991;SDS011;9121;50.926;5.340;2023-06-22T05:46:03;32.67;;;22.83;;
17991;SDS011;9121;50.926;5.340;2023-06-22T05:48:31;36.22;;;22.55;;
17991;SDS011;9121;50.926;5.340;2023-06-22T05:50:58;32.33;;;23.15;;
17991;SDS011;9121;50.926;5.340;2023-06-22T05:53:25;224.93;;;41.97;;
17991;SDS011;9121;50.926;5.340;2023-06-22T05:55:52;94.10;;;28.25;;
17991;SDS011;9121;50.926;5.340;2023-06-22T05:58:19;44.55;;;23.88;;
17991;SDS011;9121;50.926;5.340;2023-06-22T06:00:47;38.83;;;24.75;;
17991;SDS011;9121;50.926;5.340;2023-06-22T06:03:14;41.90;;;24.08;;
17991;SDS011;9121;50.926;5.340;2023-06-22T06:05:42;32.65;;;22.67;;
17991;SDS011;9121;50.926;5.340;2023-06-22T06:08:10;47.30;;;25.52;;
17991;SDS011;9121;50.926;5.340;2023-06-22T06:10:37;39.38;;;24.15;;
17991;SDS011;9121;50.926;5.340;2023-06-22T06:13:04;37.65;;;23.55;;
17991;SDS011;9121;50.926;5.340;2023-06-22T06:15:31;37.72;;;23.13;;
17991;SDS011;9121;50.926;5.340;2023-06-22T06:18:02;39.92;;;22.85;;
17991;SDS011;9121;50.926;5.340;2023-06-22T06:20:30;34.30;;;22.13;;
17991;SDS011;9121;50.926;5.340;2023-06-22T06:22:57;33.45;;;22.42;;
17991;SDS011;9121;50.926;5.340;2023-06-22T06:25:24;35.75;;;23.30;;
17991;SDS011;9121;50.926;5.340;2023-06-22T06:27:51;43.63;;;23.23;;
17991;SDS011;9121;50.926;5.340;2023-06-22T06:30:19;34.20;;;24.38;;
17991;SDS011;9121;50.926;5.340;2023-06-22T06:32:47;39.65;;;23.52;;
17991;SDS011;9121;50.926;5.340;2023-06-22T06:35:15;36.80;;;23.08;;
17991;SDS011;9121;50.926;5.340;2023-06-22T06:37:43;33.35;;;21.92;;
17991;SDS011;9121;50.926;5.340;2023-06-22T06:40:11;33.38;;;21.23;;
17991;SDS011;9121;50.926;5.340;2023-06-22T06:42:40;31.55;;;20.13;;
17991;SDS011;9121;50.926;5.340;2023-06-22T06:45:09;33.42;;;23.58;;
17991;SDS011;9121;50.926;5.340;2023-06-22T06:47:37;33.88;;;23.58;;
17991;SDS011;9121;50.926;5.340;2023-06-22T06:50:05;34.05;;;25.60;;
17991;SDS011;9121;50.926;5.340;2023-06-22T06:52:34;37.05;;;25.92;;
17991;SDS011;9121;50.926;5.340;2023-06-22T06:55:01;39.90;;;25.08;;
17991;SDS011;9121;50.926;5.340;2023-06-22T06:57:30;34.67;;;24.10;;
17991;SDS011;9121;50.926;5.340;2023-06-22T06:59:57;33.17;;;22.75;;
17991;SDS011;9121;50.926;5.340;2023-06-22T07:02:25;30.52;;;22.50;;
17991;SDS011;9121;50.926;5.340;2023-06-22T07:04:53;38.50;;;23.60;;
17991;SDS011;9121;50.926;5.340;2023-06-22T07:07:21;31.88;;;23.00;;
17991;SDS011;9121;50.926;5.340;2023-06-22T07:09:49;34.38;;;23.02;;
17991;SDS011;9121;50.926;5.340;2023-06-22T07:12:16;31.48;;;23.55;;
17991;SDS011;9121;50.926;5.340;2023-06-22T07:14:43;32.47;;;22.73;;
17991;SDS011;9121;50.926;5.340;2023-06-22T07:17:10;30.55;;;21.88;;
17991;SDS011;9121;50.926;5.340;2023-06-22T07:19:37;28.92;;;20.25;;
17991;SDS011;9121;50.926;5.340;2023-06-22T07:22:05;30.83;;;20.15;;
17991;SDS011;9121;50.926;5.340;2023-06-22T07:24:32;30.67;;;20.13;;
17991;SDS011;9121;50.926;5.340;2023-06-22T07:27:00;29.08;;;19.95;;
17991;SDS011;9121;50.926;5.340;2023-06-22T07:29:28;30.55;;;20.98;;
17991;SDS011;9121;50.926;5.340;2023-06-22T07:31:56;31.35;;;19.15;;
17991;SDS011;9121;50.926;5.340;2023-06-22T07:34:25;30.63;;;21.45;;
17991;SDS011;9121;50.926;5.340;2023-06-22T07:36:52;29.15;;;20.20;;
17991;SDS011;9121;50.926;5.340;2023-06-22T07:39:19;36.55;;;21.67;;
17991;SDS011;9121;50.926;5.340;2023-06-22T07:41:50;36.25;;;22.27;;
17991;SDS011;9121;50.926;5.340;2023-06-22T07:44:19;33.97;;;22.10;;
17991;SDS011;9121;50.926;5.340;2023-06-22T07:46:46;33.45;;;22.15;;
17991;SDS011;9121;50.926;5.340;2023-06-22T07:49:13;30.67;;;21.75;;
17991;SDS011;9121;50.926;5.340;2023-06-22T07:51:40;35.13;;;22.00;;
17991;SDS011;9121;50.926;5.340;2023-06-22T07:54:08;33.85;;;22.38;;
17991;SDS011;9121;50.926;5.340;2023-06-22T07:56:36;42.22;;;22.40;;
17991;SDS011;9121;50.926;5.340;2023-06-22T07:59:03;29.50;;;21.85;;
17991;SDS011;9121;50.926;5.340;2023-06-22T08:01:31;32.70;;;22.90;;
17991;SDS011;9121;50.926;5.340;2023-06-22T08:03:58;33.13;;;22.55;;
17991;SDS011;9121;50.926;5.340;2023-06-22T08:06:25;37.30;;;23.45;;
17991;SDS011;9121;50.926;5.340;2023-06-22T08:08:52;33.63;;;23.55;;
17991;SDS011;9121;50.926;5.340;2023-06-22T08:11:24;34.47;;;23.33;;
17991;SDS011;9121;50.926;5.340;2023-06-22T08:13:51;34.65;;;23.67;;
17991;SDS011;9121;50.926;5.340;2023-06-22T08:16:20;33.45;;;23.75;;
17991;SDS011;9121;50.926;5.340;2023-06-22T08:18:49;35.28;;;22.58;;
17991;SDS011;9121;50.926;5.340;2023-06-22T08:21:16;35.88;;;21.88;;
17991;SDS011;9121;50.926;5.340;2023-06-22T08:23:43;29.73;;;21.70;;
17991;SDS011;9121;50.926;5.340;2023-06-22T08:26:09;30.48;;;22.27;;
17991;SDS011;9121;50.926;5.340;2023-06-22T08:28:36;33.45;;;22.40;;
17991;SDS011;9121;50.926;5.340;2023-06-22T08:31:03;57.20;;;24.17;;
17991;SDS011;9121;50.926;5.340;2023-06-22T08:33:30;39.28;;;24.23;;
17991;SDS011;9121;50.926;5.340;2023-06-22T08:35:59;36.90;;;22.83;;
17991;SDS011;9121;50.926;5.340;2023-06-22T08:38:26;34.05;;;22.70;;
17991;SDS011;9121;50.926;5.340;2023-06-22T08:40:53;31.17;;;22.48;;
17991;SDS011;9121;50.926;5.340;2023-06-22T08:43:20;32.47;;;23.27;;
17991;SDS011;9121;50.926;5.340;2023-06-22T08:45:47;30.13;;;22.40;;
17991;SDS011;9121;50.926;5.340;2023-06-22T08:48:14;32.58;;;22.08;;
17991;SDS011;9121;50.926;5.340;2023-06-22T08:50:41;41.65;;;24.15;;
17991;SDS011;9121;50.926;5.340;2023-06-22T08:53:09;35.53;;;22.45;;
17991;SDS011;9121;50.926;5.340;2023-06-22T08:55:36;33.78;;;22.50;;
17991;SDS011;9121;50.926;5.340;2023-06-22T08:58:03;50.97;;;24.17;;
17991;SDS011;9121;50.926;5.340;2023-06-22T09:00:30;35.42;;;23.30;;
17991;SDS011;9121;50.926;5.340;2023-06-22T09:02:59;33.80;;;23.75;;
17991;SDS011;9121;50.926;5.340;2023-06-22T09:05:26;32.35;;;23.88;;
17991;SDS011;9121;50.926;5.340;2023-06-22T09:07:53;31.77;;;23.58;;
17991;SDS011;9121;50.926;5.340;2023-06-22T09:10:25;31.63;;;23.58;;
17991;SDS011;9121;50.926;5.340;2023-06-22T09:12:52;35.10;;;23.25;;
17991;SDS011;9121;50.926;5.340;2023-06-22T09:15:19;35.13;;;24.60;;
17991;SDS011;9121;50.926;5.340;2023-06-22T09:17:46;51.70;;;25.67;;
17991;SDS011;9121;50.926;5.340;2023-06-22T09:20:14;37.80;;;25.45;;
17991;SDS011;9121;50.926;5.340;2023-06-22T09:22:41;36.80;;;24.77;;
17991;SDS011;9121;50.926;5.340;2023-06-22T09:25:08;46.92;;;26.20;;
17991;SDS011;9121;50.926;5.340;2023-06-22T09:27:37;47.75;;;26.42;;
17991;SDS011;9121;50.926;5.340;2023-06-22T09:30:04;36.63;;;23.88;;
17991;SDS011;9121;50.926;5.340;2023-06-22T09:32:32;36.13;;;25.10;;
17991;SDS011;9121;50.926;5.340;2023-06-22T09:35:02;39.03;;;24.63;;
17991;SDS011;9121;50.926;5.340;2023-06-22T09:37:31;37.60;;;25.42;;
17991;SDS011;9121;50.926;5.340;2023-06-22T09:39:58;33.25;;;24.23;;
17991;SDS011;9121;50.926;5.340;2023-06-22T09:42:25;55.70;;;25.60;;
17991;SDS011;9121;50.926;5.340;2023-06-22T09:44:54;33.65;;;25.80;;
17991;SDS011;9121;50.926;5.340;2023-06-22T09:47:21;39.80;;;25.17;;
17991;SDS011;9121;50.926;5.340;2023-06-22T09:49:47;35.22;;;26.83;;
17991;SDS011;9121;50.926;5.340;2023-06-22T09:52:15;34.70;;;26.73;;
17991;SDS011;9121;50.926;5.340;2023-06-22T09:54:42;38.30;;;25.70;;
17991;SDS011;9121;50.926;5.340;2023-06-22T09:57:09;41.85;;;27.27;;
17991;SDS011;9121;50.926;5.340;2023-06-22T09:59:36;35.15;;;27.17;;
17991;SDS011;9121;50.926;5.340;2023-06-22T10:02:06;39.20;;;25.95;;
17991;SDS011;9121;50.926;5.340;2023-06-22T10:04:33;39.60;;;27.95;;
17991;SDS011;9121;50.926;5.340;2023-06-22T10:07:01;43.50;;;29.75;;
17991;SDS011;9121;50.926;5.340;2023-06-22T10:09:28;40.42;;;29.15;;
17991;SDS011;9121;50.926;5.340;2023-06-22T10:11:55;39.35;;;30.60;;
17991;SDS011;9121;50.926;5.340;2023-06-22T10:14:22;42.35;;;29.73;;
17991;SDS011;9121;50.926;5.340;2023-06-22T10:16:51;42.65;;;30.92;;
17991;SDS011;9121;50.926;5.340;2023-06-22T10:19:19;47.80;;;33.08;;
17991;SDS011;9121;50.926;5.340;2023-06-22T10:21:46;55.55;;;35.45;;
17991;SDS011;9121;50.926;5.340;2023-06-22T10:24:16;49.42;;;35.17;;
17991;SDS011;9121;50.926;5.340;2023-06-22T10:26:43;58.83;;;36.55;;
17991;SDS011;9121;50.926;5.340;2023-06-22T10:29:10;55.88;;;36.78;;
17991;SDS011;9121;50.926;5.340;2023-06-22T10:31:37;51.42;;;35.85;;
17991;SDS011;9121;50.926;5.340;2023-06-22T10:34:04;63.53;;;40.50;;
17991;SDS011;9121;50.926;5.340;2023-06-22T10:36:33;51.88;;;38.75;;
17991;SDS011;9121;50.926;5.340;2023-06-22T10:38:59;58.42;;;41.38;;
17991;SDS011;9121;50.926;5.340;2023-06-22T10:41:28;63.85;;;41.65;;
17991;SDS011;9121;50.926;5.340;2023-06-22T10:43:56;62.30;;;41.65;;
17991;SDS011;9121;50.926;5.340;2023-06-22T10:46:23;64.40;;;41.38;;
17991;SDS011;9121;50.926;5.340;2023-06-22T10:48:52;62.97;;;42.67;;
17991;SDS011;9121;50.926;5.340;2023-06-22T10:51:22;60.08;;;39.90;;
17991;SDS011;9121;50.926;5.340;2023-06-22T10:53:50;59.40;;;40.22;;
17991;SDS011;9121;50.926;5.340;2023-06-22T10:56:17;55.17;;;41.53;;
17991;SDS011;9121;50.926;5.340;2023-06-22T10:58:44;58.63;;;41.63;;
17991;SDS011;9121;50.926;5.340;2023-06-22T11:01:11;54.03;;;40.90;;
17991;SDS011;9121;50.926;5.340;2023-06-22T11:03:39;57.63;;;39.70;;
17991;SDS011;9121;50.926;5.340;2023-06-22T11:06:06;61.92;;;42.00;;
17991;SDS011;9121;50.926;5.340;2023-06-22T11:08:33;57.83;;;39.80;;
17991;SDS011;9121;50.926;5.340;2023-06-22T11:11:01;60.85;;;40.53;;
17991;SDS011;9121;50.926;5.340;2023-06-22T11:13:28;56.83;;;39.55;;
17991;SDS011;9121;50.926;5.340;2023-06-22T11:15:55;58.15;;;41.85;;
17991;SDS011;9121;50.926;5.340;2023-06-22T11:18:22;55.42;;;39.45;;
17991;SDS011;9121;50.926;5.340;2023-06-22T11:20:49;49.40;;;36.80;;
17991;SDS011;9121;50.926;5.340;2023-06-22T11:23:16;48.75;;;35.78;;
17991;SDS011;9121;50.926;5.340;2023-06-22T11:25:44;51.75;;;37.65;;
17991;SDS011;9121;50.926;5.340;2023-06-22T11:28:12;49.92;;;37.08;;
17991;SDS011;9121;50.926;5.340;2023-06-22T11:30:39;48.63;;;35.38;;
17991;SDS011;9121;50.926;5.340;2023-06-22T11:33:06;52.42;;;35.97;;
17991;SDS011;9121;50.926;5.340;2023-06-22T11:35:33;46.00;;;34.88;;
17991;SDS011;9121;50.926;5.340;2023-06-22T11:38:00;45.72;;;33.92;;
17991;SDS011;9121;50.926;5.340;2023-06-22T11:40:28;45.42;;;35.10;;
17991;SDS011;9121;50.926;5.340;2023-06-22T11:42:55;52.15;;;35.97;;
17991;SDS011;9121;50.926;5.340;2023-06-22T11:45:23;52.22;;;35.55;;
17991;SDS011;9121;50.926;5.340;2023-06-22T11:47:51;44.78;;;35.08;;
17991;SDS011;9121;50.926;5.340;2023-06-22T11:50:18;54.78;;;35.42;;
17991;SDS011;9121;50.926;5.340;2023-06-22T11:52:45;48.75;;;36.60;;
17991;SDS011;9121;50.926;5.340;2023-06-22T11:55:12;51.47;;;36.22;;
17991;SDS011;9121;50.926;5.340;2023-06-22T11:57:51;51.40;;;36.10;;
17991;SDS011;9121;50.926;5.340;2023-06-22T12:00:19;52.90;;;37.35;;
17991;SDS011;9121;50.926;5.340;2023-06-22T12:02:50;44.60;;;35.75;;
17991;SDS011;9121;50.926;5.340;2023-06-22T12:05:17;50.20;;;36.58;;
17991;SDS011;9121;50.926;5.340;2023-06-22T12:07:45;48.53;;;36.00;;
17991;SDS011;9121;50.926;5.340;2023-06-22T12:10:12;49.70;;;36.25;;
17991;SDS011;9121;50.926;5.340;2023-06-22T12:12:39;48.20;;;36.08;;
17991;SDS011;9121;50.926;5.340;2023-06-22T12:15:07;51.22;;;36.22;;
17991;SDS011;9121;50.926;5.340;2023-06-22T12:17:35;50.20;;;38.22;;
17991;SDS011;9121;50.926;5.340;2023-06-22T12:20:04;50.20;;;36.20;;
17991;SDS011;9121;50.926;5.340;2023-06-22T12:22:33;53.80;;;38.40;;
17991;SDS011;9121;50.926;5.340;2023-06-22T12:25:00;51.70;;;36.80;;
17991;SDS011;9121;50.926;5.340;2023-06-22T12:27:27;55.63;;;37.88;;
17991;SDS011;9121;50.926;5.340;2023-06-22T12:29:55;55.28;;;39.00;;
17991;SDS011;9121;50.926;5.340;2023-06-22T12:32:22;57.13;;;39.63;;
17991;SDS011;9121;50.926;5.340;2023-06-22T12:34:50;59.15;;;40.70;;
17991;SDS011;9121;50.926;5.340;2023-06-22T12:37:19;52.55;;;39.55;;
17991;SDS011;9121;50.926;5.340;2023-06-22T12:39:46;58.97;;;41.33;;
17991;SDS011;9121;50.926;5.340;2023-06-22T12:42:13;55.13;;;41.13;;
17991;SDS011;9121;50.926;5.340;2023-06-22T12:44:40;56.35;;;40.38;;
17991;SDS011;9121;50.926;5.340;2023-06-22T12:47:07;55.47;;;40.67;;
17991;SDS011;9121;50.926;5.340;2023-06-22T12:49:34;51.78;;;40.25;;
17991;SDS011;9121;50.926;5.340;2023-06-22T12:52:01;54.05;;;41.05;;
17991;SDS011;9121;50.926;5.340;2023-06-22T12:54:30;53.85;;;39.75;;
17991;SDS011;9121;50.926;5.340;2023-06-22T12:56:57;54.90;;;40.72;;
17991;SDS011;9121;50.926;5.340;2023-06-22T12:59:24;54.20;;;40.90;;
17991;SDS011;9121;50.926;5.340;2023-06-22T13:01:51;59.08;;;42.10;;
17991;SDS011;9121;50.926;5.340;2023-06-22T13:04:18;59.38;;;41.92;;
17991;SDS011;9121;50.926;5.340;2023-06-22T13:06:45;57.65;;;42.42;;
17991;SDS011;9121;50.926;5.340;2023-06-22T13:09:13;55.92;;;40.72;;
17991;SDS011;9121;50.926;5.340;2023-06-22T13:11:42;54.08;;;41.03;;
17991;SDS011;9121;50.926;5.340;2023-06-22T13:14:09;54.20;;;41.15;;
17991;SDS011;9121;50.926;5.340;2023-06-22T13:16:36;60.95;;;40.67;;
17991;SDS011;9121;50.926;5.340;2023-06-22T13:19:03;53.90;;;38.67;;
17991;SDS011;9121;50.926;5.340;2023-06-22T13:21:30;53.10;;;38.03;;
17991;SDS011;9121;50.926;5.340;2023-06-22T13:23:59;50.70;;;38.78;;
17991;SDS011;9121;50.926;5.340;2023-06-22T13:26:26;53.22;;;36.58;;
17991;SDS011;9121;50.926;5.340;2023-06-22T13:28:55;49.92;;;36.17;;
17991;SDS011;9121;50.926;5.340;2023-06-22T13:31:22;48.50;;;33.60;;
17991;SDS011;9121;50.926;5.340;2023-06-22T13:33:49;49.38;;;34.97;;
17991;SDS011;9121;50.926;5.340;2023-06-22T13:36:17;43.83;;;33.15;;
17991;SDS011;9121;50.926;5.340;2023-06-22T13:38:44;46.58;;;33.40;;
17991;SDS011;9121;50.926;5.340;2023-06-22T13:41:12;43.58;;;30.85;;
17991;SDS011;9121;50.926;5.340;2023-06-22T13:43:39;45.40;;;31.30;;
17991;SDS011;9121;50.926;5.340;2023-06-22T13:46:08;40.60;;;30.27;;
17991;SDS011;9121;50.926;5.340;2023-06-22T13:48:35;42.10;;;29.33;;
17991;SDS011;9121;50.926;5.340;2023-06-22T13:51:02;43.25;;;29.88;;
17991;SDS011;9121;50.926;5.340;2023-06-22T13:53:29;43.35;;;31.17;;
17991;SDS011;9121;50.926;5.340;2023-06-22T13:55:56;41.35;;;30.38;;
17991;SDS011;9121;50.926;5.340;2023-06-22T13:58:23;42.30;;;30.60;;
17991;SDS011;9121;50.926;5.340;2023-06-22T14:00:49;43.05;;;32.88;;
17991;SDS011;9121;50.926;5.340;2023-06-22T14:03:18;53.75;;;33.53;;
17991;SDS011;9121;50.926;5.340;2023-06-22T14:05:45;51.22;;;35.38;;
17991;SDS011;9121;50.926;5.340;2023-06-22T14:08:12;50.60;;;35.65;;
17991;SDS011;9121;50.926;5.340;2023-06-22T14:10:40;53.60;;;37.00;;
17991;SDS011;9121;50.926;5.340;2023-06-22T14:13:06;52.65;;;38.35;;
17991;SDS011;9121;50.926;5.340;2023-06-22T14:15:33;55.80;;;39.50;;
17991;SDS011;9121;50.926;5.340;2023-06-22T14:18:00;60.53;;;41.63;;
17991;SDS011;9121;50.926;5.340;2023-06-22T14:20:29;51.53;;;37.97;;
17991;SDS011;9121;50.926;5.340;2023-06-22T14:22:56;54.97;;;39.33;;
17991;SDS011;9121;50.926;5.340;2023-06-22T14:25:23;49.60;;;36.03;;
17991;SDS011;9121;50.926;5.340;2023-06-22T14:27:50;52.92;;;37.55;;
17991;SDS011;9121;50.926;5.340;2023-06-22T14:30:16;57.88;;;39.28;;
17991;SDS011;9121;50.926;5.340;2023-06-22T14:32:43;55.15;;;39.10;;
17991;SDS011;9121;50.926;5.340;2023-06-22T14:35:11;50.95;;;39.55;;
17991;SDS011;9121;50.926;5.340;2023-06-22T14:37:40;53.80;;;41.28;;
17991;SDS011;9121;50.926;5.340;2023-06-22T14:40:07;57.53;;;40.53;;